createdAt,value
2023-04-01T00:01:56.307Z,83.79
2023-04-01T00:04:23.711Z,83.81
2023-04-01T00:06:52.695Z,83.15
2023-04-01T00:09:20.402Z,83.43
2023-04-01T00:11:47.937Z,83.48
2023-04-01T00:14:15.343Z,83.27
2023-04-01T00:16:42.797Z,82.81
2023-04-01T00:19:10.389Z,82.30
2023-04-01T00:21:37.958Z,82.49
2023-04-01T00:24:05.427Z,82.99
2023-04-01T00:26:32.820Z,82.46
2023-04-01T00:29:01.598Z,82.00
2023-04-01T00:31:29.051Z,82.56
2023-04-01T00:33:57.277Z,82.54
2023-04-01T00:36:24.633Z,82.00
2023-04-01T00:38:52.795Z,81.43
2023-04-01T00:41:22.367Z,81.78
2023-04-01T00:43:52.390Z,82.44
2023-04-01T00:46:20.491Z,82.80
2023-04-01T00:48:55.349Z,83.14
2023-04-01T00:51:30.678Z,82.84
2023-04-01T00:54:00.307Z,83.61
2023-04-01T00:56:33.834Z,84.05
2023-04-01T00:59:06.794Z,84.83
2023-04-01T01:01:34.576Z,84.09
2023-04-01T01:04:03.305Z,83.97
2023-04-01T01:06:59.394Z,83.64
2023-04-01T01:09:36.780Z,84.33
2023-04-01T01:12:27.121Z,82.62
2023-04-01T01:15:17.237Z,82.71
2023-04-01T01:17:50.859Z,83.06
2023-04-01T01:20:35.573Z,82.64
2023-04-01T01:23:08.216Z,82.77
2023-04-01T01:25:35.964Z,83.21
2023-04-01T01:28:41.134Z,82.80
2023-04-01T01:31:27.524Z,82.82
2023-04-01T01:34:13.624Z,82.17
2023-04-01T01:36:43.634Z,82.04
2023-04-01T01:39:12.093Z,82.01
2023-04-01T01:41:43.185Z,82.36
2023-04-01T01:44:12.931Z,82.79
2023-04-01T01:46:42.386Z,83.18
2023-04-01T01:49:12.915Z,83.58
2023-04-01T01:51:40.926Z,84.24
2023-04-01T01:54:08.326Z,85.09
2023-04-01T01:56:36.940Z,85.42
2023-04-01T01:59:11.380Z,85.43
2023-04-01T02:01:44.064Z,86.11
2023-04-01T02:04:14.307Z,86.41
2023-04-01T02:06:49.153Z,86.52
2023-04-01T02:09:17.074Z,87.49
2023-04-01T02:12:07.877Z,87.36
2023-04-01T02:14:43.079Z,87.98
2023-04-01T02:17:21.174Z,87.54
2023-04-01T02:19:49.550Z,87.61
2023-04-01T02:22:23.453Z,87.92
2023-04-01T02:24:55.814Z,88.14
2023-04-01T02:27:23.453Z,88.48
2023-04-01T02:29:52.125Z,88.15
2023-04-01T02:32:20.885Z,88.15
2023-04-01T02:34:49.540Z,89.15
2023-04-01T02:37:17.154Z,90.08
2023-04-01T02:39:44.838Z,91.31
2023-04-01T02:42:12.186Z,92.57
2023-04-01T02:44:39.545Z,93.47
2023-04-01T02:47:07.070Z,94.07
2023-04-01T02:49:34.436Z,94.15
2023-04-01T02:52:01.777Z,93.34
2023-04-01T02:54:29.146Z,93.81
2023-04-01T02:56:56.533Z,92.57
2023-04-01T02:59:23.882Z,93.32
2023-04-01T03:01:51.222Z,94.04
2023-04-01T03:04:18.591Z,94.84
2023-04-01T03:06:46.250Z,95.75
2023-04-01T03:09:13.708Z,96.68
2023-04-01T03:11:41.883Z,97.55
2023-04-01T03:14:09.232Z,96.79
2023-04-01T03:16:36.604Z,97.33
2023-04-01T03:19:04.010Z,98.48
2023-04-01T03:21:31.380Z,99.14
2023-04-01T03:23:59.712Z,99.91
2023-04-01T03:26:28.182Z,100.00
2023-04-01T03:28:56.591Z,100.00
2023-04-01T03:31:24.237Z,99.77
2023-04-01T03:33:51.996Z,98.67
2023-04-01T03:36:19.703Z,98.17
2023-04-01T03:38:47.391Z,97.34
2023-04-01T03:41:16.877Z,96.22
2023-04-01T03:43:44.829Z,96.44
2023-04-01T03:46:12.352Z,95.98
2023-04-01T03:48:39.698Z,96.08
2023-04-01T03:51:09.875Z,95.03
2023-04-01T03:53:37.332Z,94.56
2023-04-01T03:56:09.181Z,94.40
2023-04-01T03:58:37.725Z,93.94
2023-04-01T04:01:13.820Z,92.74
2023-04-01T04:03:41.249Z,92.32
2023-04-01T04:06:13.450Z,92.74
2023-04-01T04:08:41.007Z,92.05
2023-04-01T04:11:08.617Z,92.73
2023-04-01T04:13:37.004Z,91.66
2023-04-01T04:16:05.060Z,92.14
2023-04-01T04:18:32.663Z,92.33
2023-04-01T04:21:00.000Z,91.88
2023-04-01T04:23:28.096Z,90.99
2023-04-01T04:26:07.840Z,90.36
2023-04-01T04:28:35.531Z,90.81
2023-04-01T04:31:05.926Z,90.15
2023-04-01T04:33:33.858Z,90.29
2023-04-01T04:36:01.347Z,90.59
2023-04-01T04:38:29.188Z,90.83
2023-04-01T04:40:56.935Z,91.13
2023-04-01T04:43:24.267Z,91.70
2023-04-01T04:45:51.868Z,91.48
2023-04-01T04:48:22.077Z,91.14
2023-04-01T04:50:51.219Z,92.30
2023-04-01T04:53:20.143Z,92.36
2023-04-01T04:55:51.243Z,93.32
2023-04-01T04:58:19.079Z,94.00
2023-04-01T05:00:46.970Z,94.47
2023-04-01T05:03:14.780Z,94.75
2023-04-01T05:05:49.114Z,95.05
2023-04-01T05:10:55.463Z,97.05
2023-04-01T05:13:22.926Z,97.99
2023-04-01T05:15:50.304Z,98.83
2023-04-01T05:18:17.781Z,98.25
2023-04-01T05:20:53.942Z,99.02
2023-04-01T05:23:22.769Z,99.30
2023-04-01T05:25:52.024Z,98.46
2023-04-01T05:28:19.953Z,97.29
2023-04-01T05:30:47.405Z,97.68
2023-04-01T05:33:14.846Z,97.37
2023-04-01T05:35:42.613Z,98.76
2023-04-01T05:38:09.735Z,100.00
2023-04-01T05:40:37.218Z,100.00
2023-04-01T05:43:04.533Z,100.00
2023-04-01T05:45:32.129Z,100.00
2023-04-01T05:48:00.568Z,100.00
2023-04-01T05:50:28.074Z,100.00
2023-04-01T05:52:55.584Z,100.00
2023-04-01T05:55:23.095Z,100.00
2023-04-01T05:57:50.802Z,100.00
2023-04-01T06:00:18.400Z,100.00
2023-04-01T06:02:45.483Z,100.00
2023-04-01T06:05:23.487Z,100.00
2023-04-01T06:07:59.136Z,100.00
2023-04-01T06:10:49.899Z,100.00
2023-04-01T06:14:00.131Z,100.00
2023-04-01T06:16:56.063Z,100.00
2023-04-01T06:19:46.651Z,99.72
2023-04-01T06:23:20.258Z,98.28
2023-04-01T06:26:02.726Z,97.42
2023-04-01T06:28:41.212Z,97.71
2023-04-01T06:31:23.097Z,96.46
2023-04-01T06:33:56.608Z,96.74
2023-04-01T06:36:35.417Z,97.50
2023-04-01T06:39:10.521Z,97.70
2023-04-01T06:41:56.232Z,98.39
2023-04-01T06:44:47.103Z,98.31
2023-04-01T06:47:19.752Z,98.92
2023-04-01T06:50:16.627Z,99.99
2023-04-01T06:53:23.343Z,100.00
2023-04-01T06:55:58.840Z,100.00
2023-04-01T06:58:51.063Z,100.00
2023-04-01T07:01:40.756Z,100.00
2023-04-01T07:04:32.775Z,100.00
2023-04-01T07:07:38.062Z,100.00
2023-04-01T07:10:13.267Z,100.00
2023-04-01T07:12:54.268Z,100.00
2023-04-01T07:15:29.834Z,100.00
2023-04-01T07:18:08.327Z,100.00
2023-04-01T07:20:38.468Z,100.00
2023-04-01T07:23:27.648Z,100.00
2023-04-01T07:26:05.708Z,100.00
2023-04-01T07:28:36.911Z,100.00
2023-04-01T07:31:42.339Z,100.00
2023-04-01T07:34:28.874Z,100.00
2023-04-01T07:37:11.479Z,100.00
2023-04-01T07:39:52.422Z,100.00
2023-04-01T07:42:34.070Z,100.00
2023-04-01T07:45:51.174Z,100.00
2023-04-01T07:48:51.927Z,100.00
2023-04-01T07:51:45.510Z,100.00
2023-04-01T07:54:47.786Z,100.00
2023-04-01T07:57:35.688Z,100.00
2023-04-01T08:00:19.750Z,100.00
2023-04-01T08:03:21.200Z,100.00
2023-04-01T08:06:16.432Z,100.00
2023-04-01T08:09:21.737Z,100.00
2023-04-01T08:12:03.647Z,100.00
2023-04-01T08:14:49.041Z,100.00
2023-04-01T08:17:27.038Z,100.00
2023-04-01T08:20:27.554Z,100.00
2023-04-01T08:23:11.464Z,100.00
2023-04-01T08:26:06.451Z,100.00
2023-04-01T08:29:21.982Z,100.00
2023-04-01T08:31:57.873Z,100.00
2023-04-01T08:34:33.036Z,100.00
2023-04-01T08:37:09.671Z,100.00
2023-04-01T08:39:45.287Z,100.00
2023-04-01T08:42:44.467Z,100.00
2023-04-01T08:45:28.884Z,100.00
2023-04-01T08:48:52.852Z,100.00
2023-04-01T08:52:16.897Z,100.00
2023-04-01T08:55:22.596Z,100.00
2023-04-01T08:58:20.795Z,100.00
2023-04-01T09:01:24.413Z,100.00
2023-04-01T09:04:26.492Z,100.00
2023-04-01T09:07:34.866Z,100.00
2023-04-01T09:10:22.681Z,100.00
2023-04-01T09:13:27.237Z,100.00
2023-04-01T09:16:21.942Z,100.00
2023-04-01T09:19:11.885Z,100.00
2023-04-01T09:21:48.644Z,100.00
2023-04-01T09:24:34.859Z,100.00
2023-04-01T09:27:25.748Z,100.00
2023-04-01T09:30:49.672Z,100.00
2023-04-01T09:34:09.465Z,100.00
2023-04-01T09:36:36.895Z,100.00
2023-04-01T09:39:38.282Z,100.00
2023-04-01T09:42:09.154Z,100.00
2023-04-01T09:44:45.542Z,100.00
2023-04-01T09:48:23.721Z,100.00
2023-04-01T09:51:06.484Z,100.00
2023-04-01T09:53:48.431Z,100.00
2023-04-01T09:56:54.451Z,100.00
2023-04-01T09:59:40.035Z,100.00
2023-04-01T10:02:42.322Z,99.91
2023-04-01T10:05:18.448Z,99.73
2023-04-01T10:08:09.198Z,99.17
2023-04-01T10:11:22.158Z,99.00
2023-04-01T10:14:36.405Z,99.51
2023-04-01T10:17:42.082Z,99.02
2023-04-01T10:20:49.844Z,100.00
2023-04-01T10:23:20.351Z,99.50
2023-04-01T10:26:19.691Z,99.34
2023-04-01T10:29:03.883Z,98.89
2023-04-01T10:32:09.578Z,98.70
2023-04-01T10:35:36.025Z,98.59
2023-04-01T10:38:56.860Z,98.07
2023-04-01T10:41:36.445Z,97.16
2023-04-01T10:44:35.018Z,96.67
2023-04-01T10:47:19.854Z,96.57
2023-04-01T10:50:06.119Z,96.29
2023-04-01T10:53:16.681Z,97.01
2023-04-01T10:56:05.724Z,96.22
2023-04-01T10:59:10.064Z,96.43
2023-04-01T11:02:10.031Z,97.11
2023-04-01T11:05:25.498Z,96.83
2023-04-01T11:08:05.404Z,96.29
2023-04-01T11:11:12.766Z,96.22
2023-04-01T11:13:57.345Z,94.49
2023-04-01T11:17:10.310Z,95.82
2023-04-01T11:20:07.602Z,95.88
2023-04-01T11:22:55.317Z,96.23
2023-04-01T11:25:44.390Z,95.97
2023-04-01T11:28:28.045Z,96.36
2023-04-01T11:31:25.005Z,96.06
2023-04-01T11:34:33.222Z,95.67
2023-04-01T11:37:10.850Z,94.88
2023-04-01T11:40:28.048Z,95.60
2023-04-01T11:43:33.795Z,95.21
2023-04-01T11:46:11.807Z,93.93
2023-04-01T11:49:24.866Z,93.69
2023-04-01T11:52:38.641Z,93.22
2023-04-01T11:55:53.478Z,92.72
2023-04-01T11:58:34.281Z,92.28
2023-04-01T12:01:39.282Z,92.47
2023-04-01T12:05:02.270Z,91.93
2023-04-01T12:08:05.442Z,91.87
2023-04-01T12:10:48.242Z,92.24
2023-04-01T12:13:43.707Z,92.88
2023-04-01T12:16:26.370Z,92.45
2023-04-01T12:19:26.104Z,91.36
2023-04-01T12:22:46.286Z,91.15
2023-04-01T12:25:44.733Z,91.51
2023-04-01T12:29:08.114Z,90.82
2023-04-01T12:32:06.468Z,90.02
2023-04-01T12:34:33.756Z,89.96
2023-04-01T12:37:48.690Z,90.41
2023-04-01T12:40:37.467Z,90.86
2023-04-01T12:43:42.034Z,90.52
2023-04-01T12:46:24.173Z,89.85
2023-04-01T12:49:30.312Z,90.20
2023-04-01T12:52:24.884Z,90.42
2023-04-01T12:55:01.495Z,90.86
2023-04-01T12:57:55.761Z,91.78
2023-04-01T13:00:45.199Z,92.25
2023-04-01T13:03:25.004Z,91.56
2023-04-01T13:06:35.437Z,91.25
2023-04-01T13:09:21.505Z,90.45
2023-04-01T13:12:19.851Z,89.84
2023-04-01T13:15:23.393Z,90.48
2023-04-01T13:18:06.343Z,89.19
2023-04-01T13:21:01.057Z,89.23
2023-04-01T13:24:02.373Z,88.49
2023-04-01T13:27:10.704Z,88.56
2023-04-01T13:29:41.880Z,88.70
2023-04-01T13:32:40.749Z,89.35
2023-04-01T13:35:56.782Z,89.40
2023-04-01T13:38:53.866Z,90.38
2023-04-01T13:41:48.962Z,90.53
2023-04-01T13:44:55.116Z,90.54
2023-04-01T13:47:55.041Z,90.67
2023-04-01T13:50:34.959Z,90.19
2023-04-01T13:53:22.516Z,90.89
2023-04-01T13:56:16.306Z,90.59
2023-04-01T13:59:06.674Z,91.24
2023-04-01T14:01:37.224Z,90.02
2023-04-01T14:04:24.908Z,90.40
2023-04-01T14:07:36.359Z,90.10
2023-04-01T14:10:44.376Z,89.38
2023-04-01T14:13:30.379Z,89.52
2023-04-01T14:16:39.927Z,89.20
2023-04-01T14:19:43.857Z,88.85
2023-04-01T14:23:01.709Z,89.20
2023-04-01T14:25:44.730Z,88.30
2023-04-01T14:29:11.142Z,87.98
2023-04-01T14:32:01.336Z,87.17
2023-04-01T14:34:45.624Z,86.91
2023-04-01T14:37:56.406Z,86.54
2023-04-01T14:41:17.808Z,86.74
2023-04-01T14:44:15.512Z,86.67
2023-04-01T14:47:01.523Z,85.72
2023-04-01T14:50:11.862Z,85.75
2023-04-01T14:52:45.767Z,85.49
2023-04-01T14:55:28.991Z,84.93
2023-04-01T14:58:26.372Z,83.59
2023-04-01T15:01:15.102Z,83.76
2023-04-01T15:04:30.570Z,82.36
2023-04-01T15:07:22.565Z,82.22
2023-04-01T15:10:41.882Z,81.13
2023-04-01T15:13:29.951Z,80.95
2023-04-01T15:16:36.232Z,80.02
2023-04-01T15:19:24.631Z,79.63
2023-04-01T15:22:14.849Z,79.34
2023-04-01T15:25:19.943Z,78.45
2023-04-01T15:27:56.294Z,78.36
2023-04-01T15:30:45.868Z,77.75
2023-04-01T15:33:33.592Z,79.00
2023-04-01T15:36:09.940Z,79.65
2023-04-01T15:38:39.986Z,80.55
2023-04-01T15:41:40.000Z,81.54
2023-04-01T15:44:59.627Z,82.54
2023-04-01T15:47:27.054Z,83.79
2023-04-01T15:50:17.732Z,82.45
2023-04-01T15:53:36.910Z,81.18
2023-04-01T15:56:58.485Z,80.34
2023-04-01T16:00:15.696Z,78.28
2023-04-01T16:02:52.315Z,76.75
2023-04-01T16:05:25.967Z,76.79
2023-04-01T16:08:39.672Z,76.73
2023-04-01T16:11:09.990Z,75.93
2023-04-01T16:13:43.953Z,75.71
2023-04-01T16:16:44.783Z,75.55
2023-04-01T16:19:58.273Z,75.50
2023-04-01T16:22:50.433Z,75.10
2023-04-01T16:25:42.996Z,75.66
2023-04-01T16:28:35.771Z,76.34
2023-04-01T16:31:28.136Z,76.41
2023-04-01T16:34:09.859Z,76.24
2023-04-01T16:36:50.047Z,76.71
2023-04-01T16:39:42.126Z,76.30
2023-04-01T16:42:27.186Z,75.89
2023-04-01T16:45:00.713Z,75.70
2023-04-01T16:47:49.808Z,75.88
2023-04-01T16:50:43.384Z,75.48
2023-04-01T16:53:20.047Z,75.24
2023-04-01T16:56:06.054Z,75.15
2023-04-01T16:59:15.698Z,75.20
2023-04-01T17:02:12.616Z,76.00
2023-04-01T17:04:58.774Z,76.22
2023-04-01T17:07:59.669Z,77.07
2023-04-01T17:11:02.642Z,78.43
2023-04-01T17:14:08.452Z,78.88
2023-04-01T17:17:05.635Z,79.56
2023-04-01T17:19:51.765Z,79.59
2023-04-01T17:22:42.801Z,79.85
2023-04-01T17:25:32.369Z,79.82
2023-04-01T17:28:50.757Z,80.76
2023-04-01T17:32:07.607Z,80.62
2023-04-01T17:34:56.527Z,81.00
2023-04-01T17:37:53.074Z,81.57
2023-04-01T17:40:43.878Z,82.15
2023-04-01T17:43:34.678Z,82.16
2023-04-01T17:46:52.183Z,82.02
2023-04-01T17:49:55.726Z,83.15
2023-04-01T17:52:41.177Z,83.41
2023-04-01T17:55:29.308Z,83.01
2023-04-01T17:58:18.011Z,82.78
2023-04-01T18:01:37.520Z,83.13
2023-04-01T18:04:37.982Z,83.35
2023-04-01T18:07:51.736Z,83.51
2023-04-01T18:10:41.509Z,83.70
2023-04-01T18:13:09.391Z,84.39
2023-04-01T18:16:03.942Z,84.25
2023-04-01T18:18:46.697Z,84.69
2023-04-01T18:21:49.073Z,84.72
2023-04-01T18:24:48.742Z,84.82
2023-04-01T18:28:15.391Z,85.42
2023-04-01T18:30:42.827Z,85.81
2023-04-01T18:33:24.392Z,86.20
2023-04-01T18:35:52.888Z,86.10
2023-04-01T18:38:42.994Z,86.53
2023-04-01T18:41:35.812Z,86.62
2023-04-01T18:44:26.988Z,86.48
2023-04-01T18:47:44.550Z,86.50
2023-04-01T18:50:51.953Z,86.89
2023-04-01T18:53:38.298Z,87.18
2023-04-01T18:56:12.034Z,87.85
2023-04-01T18:59:28.439Z,87.66
2023-04-01T19:02:28.963Z,87.66
2023-04-01T19:05:11.748Z,87.59
2023-04-01T19:07:44.845Z,87.69
2023-04-01T19:10:52.276Z,87.85
2023-04-01T19:13:44.641Z,87.27
2023-04-01T19:16:12.051Z,87.33
2023-04-01T19:18:51.130Z,87.77
2023-04-01T19:21:21.166Z,88.30
2023-04-01T19:24:13.569Z,88.76
2023-04-01T19:27:19.296Z,88.39
2023-04-01T19:30:14.963Z,88.17
2023-04-01T19:33:03.233Z,88.40
2023-04-01T19:35:48.789Z,88.44
2023-04-01T19:38:36.212Z,88.24
2023-04-01T19:41:21.283Z,88.52
2023-04-01T19:43:56.388Z,88.97
2023-04-01T19:46:42.395Z,89.14
2023-04-01T19:49:46.670Z,89.01
2023-04-01T19:52:33.422Z,89.44
2023-04-01T19:55:38.786Z,88.98
2023-04-01T19:58:11.943Z,89.64
2023-04-01T20:00:52.585Z,89.99
2023-04-01T20:03:48.039Z,90.47
2023-04-01T20:06:37.861Z,90.53
2023-04-01T20:09:51.449Z,90.37
2023-04-01T20:12:48.094Z,91.01
2023-04-01T20:15:44.638Z,91.30
2023-04-01T20:18:41.270Z,91.70
2023-04-01T20:21:44.706Z,92.13
2023-04-01T20:24:14.724Z,92.44
2023-04-01T20:27:14.141Z,92.56
2023-04-01T20:30:25.693Z,92.98
2023-04-01T20:33:34.950Z,92.38
2023-04-01T20:36:44.743Z,92.66
2023-04-01T20:39:35.840Z,93.26
2023-04-01T20:42:28.130Z,93.63
2023-04-01T20:45:14.277Z,93.67
2023-04-01T20:48:16.332Z,93.60
2023-04-01T20:51:05.947Z,93.73
2023-04-01T20:53:44.744Z,94.27
2023-04-01T20:56:28.816Z,94.15
2023-04-01T20:59:28.788Z,94.41
2023-04-01T21:02:26.240Z,94.63
2023-04-01T21:05:35.227Z,94.77
2023-04-01T21:08:23.120Z,94.82
2023-04-01T21:11:33.090Z,95.40
2023-04-01T21:14:14.748Z,95.42
2023-04-01T21:17:15.487Z,95.74
2023-04-01T21:20:43.358Z,96.77
2023-04-01T21:23:10.778Z,96.71
2023-04-01T21:25:48.807Z,97.12
2023-04-01T21:28:57.848Z,96.76
2023-04-01T21:32:16.124Z,96.87
2023-04-01T21:35:21.475Z,96.46
2023-04-01T21:38:16.789Z,96.89
2023-04-01T21:40:59.476Z,97.26
2023-04-01T21:44:11.570Z,96.66
2023-04-01T21:46:52.253Z,96.65
2023-04-01T21:49:25.449Z,96.49
2023-04-01T21:52:13.163Z,96.53
2023-04-01T21:55:04.362Z,96.59
2023-04-01T21:58:08.049Z,96.82
2023-04-01T22:00:58.343Z,97.06
2023-04-01T22:04:08.784Z,96.31
2023-04-01T22:07:15.646Z,96.38
2023-04-01T22:10:20.657Z,96.59
2023-04-01T22:13:06.396Z,97.00
2023-04-01T22:16:04.169Z,96.94
2023-04-01T22:18:35.164Z,97.04
2023-04-01T22:21:14.209Z,96.55
2023-04-01T22:23:59.726Z,96.33
2023-04-01T22:26:35.389Z,96.47
2023-04-01T22:29:17.162Z,96.85
2023-04-01T22:32:12.796Z,97.89
2023-04-01T22:35:08.755Z,98.71
2023-04-01T22:37:48.276Z,99.72
2023-04-01T22:40:53.633Z,99.47
2023-04-01T22:43:40.820Z,99.90
2023-04-01T22:46:31.731Z,100.00
2023-04-01T22:49:17.509Z,100.00
2023-04-01T22:51:57.983Z,100.00
2023-04-01T22:54:55.505Z,100.00
2023-04-01T22:57:31.881Z,100.00
2023-04-01T23:00:16.192Z,100.00
2023-04-01T23:03:20.694Z,100.00
2023-04-01T23:05:58.843Z,100.00
2023-04-01T23:08:37.642Z,100.00
2023-04-01T23:11:09.261Z,100.00
2023-04-01T23:13:42.752Z,100.00
2023-04-01T23:16:11.201Z,100.00
2023-04-01T23:19:19.139Z,100.00
2023-04-01T23:22:20.997Z,100.00
2023-04-01T23:25:16.840Z,100.00
2023-04-01T23:28:10.881Z,100.00
2023-04-01T23:30:40.960Z,100.00
2023-04-01T23:33:19.793Z,100.00
2023-04-01T23:36:06.267Z,100.00
2023-04-01T23:38:42.692Z,100.00
2023-04-01T23:41:32.401Z,100.00
2023-04-01T23:44:14.965Z,100.00
2023-04-01T23:46:45.934Z,100.00
2023-04-01T23:49:23.173Z,100.00
2023-04-01T23:52:25.375Z,100.00
2023-04-01T23:55:15.369Z,100.00
2023-04-01T23:57:42.718Z,100.00
